createdAt,value
2023-01-12T00:00:11.928Z,3.75
2023-01-12T00:05:15.252Z,3.95
2023-01-12T00:10:19.049Z,2.92
2023-01-12T00:15:43.601Z,2.88
2023-01-12T00:20:48.296Z,3.00
2023-01-12T00:25:52.949Z,2.92
2023-01-12T00:31:00.628Z,3.28
2023-01-12T00:36:03.603Z,3.35
2023-01-12T00:41:07.837Z,3.90
2023-01-12T00:46:10.601Z,3.60
2023-01-12T00:51:13.025Z,3.17
2023-01-12T00:56:17.188Z,3.38
2023-01-12T01:01:19.646Z,3.80
2023-01-12T01:06:22.362Z,3.57
2023-01-12T01:11:26.125Z,3.93
2023-01-12T01:16:30.566Z,4.45
2023-01-12T01:21:33.200Z,4.40
2023-01-12T01:26:37.057Z,5.90
2023-01-12T01:31:39.486Z,6.07
2023-01-12T01:36:41.924Z,6.57
2023-01-12T01:41:48.061Z,6.32
2023-01-12T01:46:52.008Z,6.32
2023-01-12T01:51:55.880Z,6.97
2023-01-12T01:56:59.881Z,7.93
2023-01-12T02:02:02.643Z,6.65
2023-01-12T02:07:07.091Z,7.35
2023-01-12T02:12:28.371Z,7.13
2023-01-12T02:17:36.526Z,7.65
2023-01-12T02:22:48.949Z,7.25
2023-01-12T02:28:12.039Z,7.45
2023-01-12T02:33:24.824Z,7.63
2023-01-12T02:38:31.407Z,6.50
2023-01-12T02:43:36.036Z,5.10
2023-01-12T02:48:41.556Z,4.45
2023-01-12T02:53:47.108Z,4.80
2023-01-12T02:58:51.653Z,4.38
2023-01-12T03:03:57.082Z,3.25
2023-01-12T03:08:59.455Z,4.15
2023-01-12T03:14:03.610Z,3.80
2023-01-12T03:19:09.943Z,2.85
2023-01-12T03:24:13.594Z,3.67
2023-01-12T03:29:17.027Z,2.90
2023-01-12T03:39:27.303Z,3.20
2023-01-12T03:44:32.322Z,2.92
2023-01-12T03:49:37.673Z,3.35
2023-01-12T03:54:42.244Z,3.20
2023-01-12T03:59:44.776Z,4.47
2023-01-12T04:04:47.143Z,4.80
2023-01-12T04:09:50.946Z,3.78
2023-01-12T04:14:53.448Z,3.08
2023-01-12T04:19:55.919Z,2.70
2023-01-12T04:24:59.640Z,4.13
2023-01-12T04:30:02.025Z,3.10
2023-01-12T04:35:04.830Z,3.70
2023-01-12T04:40:10.171Z,3.60
2023-01-12T04:45:12.835Z,4.35
2023-01-12T04:50:15.849Z,3.33
2023-01-12T04:55:19.625Z,2.72
2023-01-12T05:00:23.278Z,3.38
2023-01-12T05:05:25.784Z,2.63
2023-01-12T05:10:30.020Z,2.87
2023-01-12T05:15:32.386Z,1.85
2023-01-12T05:20:35.044Z,2.92
2023-01-12T05:25:38.811Z,2.90
2023-01-12T05:30:41.350Z,2.90
2023-01-12T05:35:43.788Z,2.60
2023-01-12T05:40:47.577Z,2.28
2023-01-12T05:45:50.096Z,2.38
2023-01-12T05:50:52.549Z,1.80
2023-01-12T05:55:56.609Z,1.85
2023-01-12T06:00:59.107Z,1.90
2023-01-12T06:06:01.644Z,2.23
2023-01-12T06:11:05.594Z,2.07
2023-01-12T06:16:09.228Z,1.70
2023-01-12T06:21:11.900Z,1.70
2023-01-12T06:26:15.701Z,2.37
2023-01-12T06:31:18.250Z,2.20
2023-01-12T06:36:20.730Z,2.13
2023-01-12T06:41:38.463Z,2.20
2023-01-12T06:46:40.914Z,1.98
2023-01-12T06:51:43.428Z,2.17
2023-01-12T06:56:47.217Z,1.88
2023-01-12T07:01:49.682Z,2.63
2023-01-12T07:06:54.388Z,1.93
2023-01-12T07:11:58.083Z,1.33
2023-01-12T07:17:00.535Z,1.10
2023-01-12T07:22:03.028Z,2.00
2023-01-12T07:27:06.858Z,1.50
2023-01-12T07:32:09.222Z,1.95
2023-01-12T07:37:11.657Z,1.80
2023-01-12T07:42:25.106Z,2.10
2023-01-12T07:47:28.071Z,2.08
2023-01-12T07:52:30.555Z,2.20
2023-01-12T07:57:34.379Z,2.20
2023-01-12T08:02:36.780Z,2.28
2023-01-12T08:07:39.982Z,2.20
2023-01-12T08:12:43.817Z,2.00
2023-01-12T08:17:48.734Z,2.33
2023-01-12T08:22:53.095Z,2.40
2023-01-12T08:28:00.227Z,2.63
2023-01-12T08:33:02.789Z,2.88
2023-01-12T08:38:05.143Z,3.23
2023-01-12T08:43:08.937Z,2.75
2023-01-12T08:48:11.378Z,2.97
2023-01-12T08:53:13.761Z,3.72
2023-01-12T08:58:17.467Z,4.45
2023-01-12T09:03:19.953Z,3.92
2023-01-12T09:08:22.561Z,3.83
2023-01-12T09:13:26.281Z,4.67
2023-01-12T09:18:28.708Z,4.70
2023-01-12T09:23:31.423Z,4.63
2023-01-12T09:28:35.352Z,3.57
2023-01-12T09:33:38.264Z,3.75
2023-01-12T09:38:41.654Z,3.17
2023-01-12T09:49:05.487Z,2.75
2023-01-12T09:54:07.931Z,2.58
2023-01-12T09:59:18.735Z,2.67
2023-01-12T10:04:22.503Z,2.45
2023-01-12T10:09:26.607Z,2.40
2023-01-12T10:14:47.029Z,2.92
2023-01-12T10:19:57.345Z,2.60
2023-01-12T10:25:00.395Z,3.33
2023-01-12T10:30:03.226Z,2.58
2023-01-12T10:35:13.407Z,2.80
2023-01-12T10:40:22.904Z,2.50
2023-01-12T10:45:25.779Z,2.20
2023-01-12T10:50:31.430Z,2.40
2023-01-12T10:55:35.917Z,2.40
2023-01-12T11:00:38.361Z,2.20
2023-01-12T11:05:42.187Z,1.90
2023-01-12T11:10:44.548Z,1.92
2023-01-12T11:15:55.298Z,1.90
2023-01-12T11:21:02.275Z,1.92
2023-01-12T11:26:09.586Z,2.03
2023-01-12T11:31:14.000Z,1.80
2023-01-12T11:36:20.271Z,1.42
2023-01-12T11:41:25.493Z,1.40
2023-01-12T11:46:30.055Z,1.10
2023-01-12T11:51:33.943Z,1.35
2023-01-12T11:56:44.493Z,1.30
2023-01-12T12:01:49.976Z,1.35
2023-01-12T12:07:08.713Z,1.23
2023-01-12T12:12:16.163Z,1.48
2023-01-12T12:17:21.271Z,1.73
2023-01-12T12:22:41.395Z,1.45
2023-01-12T12:27:51.448Z,1.65
2023-01-12T12:32:56.478Z,1.35
2023-01-12T12:38:05.742Z,1.23
2023-01-12T12:43:31.123Z,1.10
2023-01-12T12:48:36.618Z,1.35
2023-01-12T12:53:41.925Z,1.30
2023-01-12T12:58:46.956Z,1.10
2023-01-12T13:03:50.389Z,1.70
2023-01-12T13:14:00.672Z,1.60
2023-01-12T13:19:08.189Z,1.67
2023-01-12T13:24:25.727Z,2.13
2023-01-12T13:29:47.431Z,1.88
2023-01-12T13:34:49.968Z,1.80
2023-01-12T13:39:56.634Z,1.50
2023-01-12T13:45:00.402Z,1.02
2023-01-12T13:50:03.313Z,1.73
2023-01-12T13:55:18.477Z,1.20
2023-01-12T14:00:23.677Z,1.00
2023-01-12T14:05:39.535Z,1.02
2023-01-12T14:10:47.258Z,1.27
2023-01-12T14:16:08.523Z,1.08
2023-01-12T14:21:21.347Z,2.20
2023-01-12T14:26:27.098Z,2.13
2023-01-12T14:31:33.704Z,1.90
2023-01-12T14:36:37.288Z,1.20
2023-01-12T14:41:57.166Z,1.85
2023-01-12T14:47:01.009Z,1.40
2023-01-12T14:52:04.648Z,1.63
2023-01-12T14:57:08.239Z,1.30
2023-01-12T15:02:32.741Z,1.38
2023-01-12T15:07:37.690Z,1.30
2023-01-12T15:12:43.875Z,1.25
2023-01-12T15:18:15.654Z,1.17
2023-01-12T15:23:36.817Z,1.17
2023-01-12T15:28:40.266Z,1.40
2023-01-12T15:38:46.276Z,2.00
2023-01-12T15:43:48.692Z,1.90
2023-01-12T15:48:51.102Z,2.20
2023-01-12T15:53:54.863Z,2.20
2023-01-12T15:58:57.832Z,1.85
2023-01-12T16:04:39.870Z,2.55
2023-01-12T16:09:24.462Z,2.00
2023-01-12T16:14:26.833Z,2.10
2023-01-12T16:19:29.307Z,1.80
2023-01-12T16:24:34.245Z,2.00
2023-01-12T16:29:36.880Z,2.53
2023-01-12T16:34:39.525Z,2.07
2023-01-12T16:39:43.534Z,2.40
2023-01-12T16:44:46.028Z,2.72
2023-01-12T16:49:49.224Z,2.47
2023-01-12T16:54:53.050Z,2.72
2023-01-12T16:59:55.459Z,2.78
2023-01-12T17:04:58.715Z,2.90
2023-01-12T17:10:03.112Z,2.50
2023-01-12T17:15:05.992Z,2.22
2023-01-12T17:20:09.110Z,2.95
2023-01-12T17:25:12.992Z,2.58
2023-01-12T17:30:15.549Z,2.72
2023-01-12T17:35:18.067Z,3.30
2023-01-12T17:40:21.963Z,3.85
2023-01-12T17:45:24.341Z,3.60
2023-01-12T17:50:27.049Z,2.97
2023-01-12T17:55:31.652Z,3.30
2023-01-12T18:00:34.354Z,6.40
2023-01-12T18:05:37.093Z,2.37
2023-01-12T18:10:41.066Z,2.05
2023-01-12T18:15:43.477Z,2.60
2023-01-12T18:20:45.980Z,2.97
2023-01-12T18:25:49.706Z,3.47
2023-01-12T18:30:52.097Z,4.07
2023-01-12T18:35:54.577Z,4.20
2023-01-12T18:41:20.272Z,3.08
2023-01-12T18:46:42.846Z,2.35
2023-01-12T18:52:02.936Z,1.60
2023-01-12T18:57:06.814Z,1.90
2023-01-12T19:02:10.804Z,2.63
2023-01-12T19:07:15.487Z,2.50
2023-01-12T19:12:19.239Z,3.90
2023-01-12T19:17:33.689Z,4.07
2023-01-12T19:22:53.929Z,5.22
2023-01-12T19:28:17.197Z,5.95
2023-01-12T19:33:20.470Z,6.18
2023-01-12T19:38:23.039Z,7.00
2023-01-12T19:43:29.542Z,6.07
2023-01-12T19:48:32.595Z,6.70
2023-01-12T19:53:35.067Z,7.45
2023-01-12T19:58:38.908Z,6.67
2023-01-12T20:03:43.115Z,7.40
2023-01-12T20:08:45.744Z,7.47
2023-01-12T20:13:49.531Z,7.63
2023-01-12T20:18:55.510Z,7.45
2023-01-12T20:23:58.001Z,7.68
2023-01-12T20:29:01.991Z,6.77
2023-01-12T20:34:04.487Z,7.15
2023-01-12T20:39:10.865Z,7.10
2023-01-12T20:44:16.513Z,7.32
2023-01-12T20:49:18.923Z,6.75
2023-01-12T20:54:21.462Z,4.90
2023-01-12T20:59:25.318Z,5.53
2023-01-12T21:04:27.772Z,5.53
2023-01-12T21:09:30.358Z,5.50
2023-01-12T21:14:34.386Z,5.40
2023-01-12T21:19:36.812Z,4.75
2023-01-12T21:24:39.209Z,4.25
2023-01-12T21:29:43.108Z,4.93
2023-01-12T21:34:45.591Z,4.72
2023-01-12T21:39:48.017Z,4.30
2023-01-12T21:44:51.886Z,4.60
2023-01-12T21:49:56.361Z,5.43
2023-01-12T21:54:58.818Z,5.97
2023-01-12T22:00:02.618Z,4.83
2023-01-12T22:05:05.527Z,4.55
2023-01-12T22:10:24.731Z,5.10
2023-01-12T22:15:29.615Z,6.00
2023-01-12T22:20:32.209Z,6.13
2023-01-12T22:25:34.707Z,3.53
2023-01-12T22:30:38.486Z,1.88
2023-01-12T22:35:41.072Z,1.52
2023-01-12T22:40:43.456Z,2.63
2023-01-12T22:45:50.539Z,3.65
2023-01-12T22:50:54.518Z,5.10
2023-01-12T22:55:59.718Z,4.18
2023-01-12T23:01:07.322Z,3.88
2023-01-12T23:06:11.783Z,3.45
2023-01-12T23:11:15.492Z,3.33
2023-01-12T23:16:19.672Z,3.67
2023-01-12T23:21:24.770Z,4.03
2023-01-12T23:26:27.983Z,3.53
2023-01-12T23:31:33.171Z,3.65
2023-01-12T23:36:35.967Z,3.13
2023-01-12T23:41:38.653Z,4.10
2023-01-12T23:46:43.368Z,5.33
2023-01-12T23:51:45.788Z,3.55
2023-01-12T23:56:51.341Z,3.37
